createdAt,value
2022-08-22T00:00:32.132Z,15.57
2022-08-22T00:02:45.056Z,23.13
2022-08-22T00:02:53.605Z,26.30
2022-08-22T00:03:11.263Z,19.33
2022-08-22T00:06:05.074Z,17.60
2022-08-22T00:08:40.262Z,17.13
2022-08-22T00:11:15.851Z,15.90
2022-08-22T00:13:48.923Z,16.43
2022-08-22T00:16:34.963Z,16.17
2022-08-22T00:19:14.101Z,15.10
2022-08-22T00:21:52.566Z,16.47
2022-08-22T00:24:28.000Z,17.30
2022-08-22T00:27:04.416Z,14.37
2022-08-22T00:29:39.942Z,17.17
2022-08-22T00:32:10.397Z,15.03
2022-08-22T00:34:47.844Z,16.87
2022-08-22T00:37:24.266Z,19.83
2022-08-22T00:39:57.206Z,15.97
2022-08-22T00:42:48.055Z,16.57
2022-08-22T00:45:39.422Z,17.60
2022-08-22T00:48:36.515Z,20.23
2022-08-22T00:51:34.705Z,20.33
2022-08-22T00:54:17.490Z,18.37
2022-08-22T00:57:23.576Z,15.60
2022-08-22T01:00:11.105Z,15.70
2022-08-22T01:03:02.781Z,16.10
2022-08-22T01:05:52.128Z,14.57
2022-08-22T01:08:38.301Z,14.97
2022-08-22T01:11:22.867Z,15.80
2022-08-22T01:14:09.007Z,16.73
2022-08-22T01:17:04.506Z,16.80
2022-08-22T01:20:05.148Z,15.55
2022-08-22T01:23:07.406Z,16.30
2022-08-22T01:26:03.542Z,15.40
2022-08-22T01:29:33.336Z,17.83
2022-08-22T01:35:12.788Z,15.83
2022-08-22T01:37:59.383Z,16.03
2022-08-22T01:41:06.457Z,18.67
2022-08-22T01:44:06.295Z,24.40
2022-08-22T01:46:45.705Z,14.47
2022-08-22T01:49:22.964Z,15.90
2022-08-22T01:51:58.588Z,14.17
2022-08-22T01:54:36.978Z,15.13
2022-08-22T01:57:08.911Z,18.43
2022-08-22T01:59:42.631Z,19.60
2022-08-22T02:02:44.114Z,17.52
2022-08-22T02:05:22.208Z,15.83
2022-08-22T02:08:00.530Z,21.20
2022-08-22T02:10:48.214Z,15.33
2022-08-22T02:13:32.511Z,17.90
2022-08-22T02:16:10.329Z,14.40
2022-08-22T02:19:00.551Z,14.73
2022-08-22T02:21:42.327Z,17.20
2022-08-22T02:24:23.131Z,16.77
2022-08-22T02:27:04.450Z,15.47
2022-08-22T02:29:39.897Z,15.77
2022-08-22T02:32:15.795Z,15.53
2022-08-22T02:34:50.683Z,17.53
2022-08-22T02:37:31.159Z,14.93
2022-08-22T02:40:09.669Z,16.73
2022-08-22T02:42:43.709Z,16.00
2022-08-22T02:45:25.126Z,17.48
2022-08-22T02:48:02.096Z,15.90
2022-08-22T02:50:39.402Z,15.60
2022-08-22T02:53:17.452Z,17.23
2022-08-22T02:55:55.388Z,16.30
2022-08-22T02:58:31.546Z,16.00
2022-08-22T03:01:35.405Z,19.57
2022-08-22T03:04:25.805Z,16.30
2022-08-22T03:07:15.985Z,15.57
2022-08-22T03:09:50.051Z,16.97
2022-08-22T03:12:27.196Z,17.67
2022-08-22T03:15:01.864Z,18.50
2022-08-22T03:17:34.419Z,17.30
2022-08-22T03:20:08.209Z,17.20
2022-08-22T03:22:45.802Z,16.37
2022-08-22T03:25:24.796Z,17.03
2022-08-22T03:28:00.363Z,18.27
2022-08-22T03:30:42.359Z,20.17
2022-08-22T03:33:19.756Z,20.90
2022-08-22T03:35:59.776Z,16.03
2022-08-22T03:38:39.756Z,16.40
2022-08-22T03:41:25.673Z,16.40
2022-08-22T03:44:32.415Z,19.07
2022-08-22T03:47:45.260Z,15.63
2022-08-22T03:50:54.499Z,22.70
2022-08-22T03:53:58.321Z,19.63
2022-08-22T03:56:54.110Z,19.60
2022-08-22T04:00:12.865Z,16.90
2022-08-22T04:03:22.345Z,18.60
2022-08-22T04:06:35.364Z,20.20
2022-08-22T04:09:39.810Z,19.03
2022-08-22T04:12:52.625Z,16.70
2022-08-22T04:15:48.085Z,19.80
2022-08-22T04:18:36.314Z,21.93
2022-08-22T04:21:29.715Z,22.97
2022-08-22T04:24:27.014Z,19.97
2022-08-22T04:27:00.493Z,21.40
2022-08-22T04:29:37.483Z,18.97
2022-08-22T04:32:14.533Z,17.80
2022-08-22T04:34:49.065Z,29.10
2022-08-22T04:37:23.521Z,20.23
2022-08-22T04:39:58.427Z,19.33
2022-08-22T04:42:34.521Z,17.53
2022-08-22T04:45:10.563Z,16.77
2022-08-22T04:47:54.258Z,19.47
2022-08-22T04:50:31.445Z,21.30
2022-08-22T04:53:24.744Z,20.33
2022-08-22T04:56:07.657Z,20.80
2022-08-22T04:58:57.402Z,23.17
2022-08-22T05:01:38.450Z,24.50
2022-08-22T05:04:12.751Z,21.87
2022-08-22T05:06:46.657Z,25.07
2022-08-22T05:09:18.883Z,20.50
2022-08-22T05:11:51.476Z,32.90
2022-08-22T05:14:24.759Z,24.27
2022-08-22T05:16:57.595Z,20.63
2022-08-22T05:19:34.856Z,17.83
2022-08-22T05:22:05.014Z,19.63
2022-08-22T05:24:38.265Z,19.37
2022-08-22T05:27:12.363Z,16.53
2022-08-22T05:29:44.276Z,16.33
2022-08-22T05:32:20.711Z,19.37
2022-08-22T05:34:55.039Z,24.70
2022-08-22T05:37:26.897Z,18.63
2022-08-22T05:39:59.968Z,16.77
2022-08-22T05:42:31.236Z,17.13
2022-08-22T05:45:01.940Z,18.57
2022-08-22T05:47:37.625Z,19.20
2022-08-22T05:50:09.561Z,17.73
2022-08-22T05:52:54.455Z,20.23
2022-08-22T05:55:29.371Z,19.00
2022-08-22T05:58:18.437Z,16.47
2022-08-22T06:00:50.522Z,15.73
2022-08-22T06:03:26.943Z,24.53
2022-08-22T06:06:03.366Z,22.03
2022-08-22T06:08:37.138Z,19.43
2022-08-22T06:11:10.579Z,29.07
2022-08-22T06:13:47.347Z,16.30
2022-08-22T06:16:21.104Z,19.70
2022-08-22T06:18:51.773Z,29.77
2022-08-22T06:21:27.422Z,18.47
2022-08-22T06:24:00.027Z,18.80
2022-08-22T06:26:38.091Z,18.17
2022-08-22T06:29:09.645Z,16.83
2022-08-22T06:31:44.568Z,17.90
2022-08-22T06:34:16.801Z,17.03
2022-08-22T06:36:50.851Z,15.73
2022-08-22T06:39:23.531Z,19.37
2022-08-22T06:41:55.885Z,16.97
2022-08-22T06:44:31.840Z,17.07
2022-08-22T06:47:03.410Z,15.80
2022-08-22T06:49:33.850Z,21.43
2022-08-22T06:52:07.453Z,22.87
2022-08-22T06:54:38.014Z,18.93
2022-08-22T06:57:07.840Z,16.10
2022-08-22T06:59:39.755Z,16.77
2022-08-22T07:02:17.756Z,17.13
2022-08-22T07:04:50.004Z,15.10
2022-08-22T07:07:21.621Z,17.90
2022-08-22T07:09:55.462Z,17.67
2022-08-22T07:12:30.680Z,18.40
2022-08-22T07:15:11.280Z,17.60
2022-08-22T07:17:49.840Z,19.83
2022-08-22T07:20:24.547Z,16.27
2022-08-22T07:22:57.350Z,15.47
2022-08-22T07:25:26.597Z,16.30
2022-08-22T07:28:15.944Z,16.63
2022-08-22T07:30:56.081Z,18.27
2022-08-22T07:33:40.644Z,16.60
2022-08-22T07:36:23.176Z,17.93
2022-08-22T07:39:11.148Z,16.30
2022-08-22T07:41:54.824Z,16.23
2022-08-22T07:44:27.063Z,18.30
2022-08-22T07:47:01.560Z,17.70
2022-08-22T07:49:35.177Z,15.98
2022-08-22T07:52:09.486Z,16.60
2022-08-22T07:54:44.856Z,15.63
2022-08-22T07:57:16.722Z,17.93
2022-08-22T07:59:49.687Z,18.47
2022-08-22T08:02:21.121Z,19.63
2022-08-22T08:04:52.611Z,16.53
2022-08-22T08:07:25.078Z,16.70
2022-08-22T08:09:59.666Z,20.13
2022-08-22T08:12:34.215Z,18.17
2022-08-22T08:15:05.483Z,16.83
2022-08-22T08:17:36.822Z,17.23
2022-08-22T08:20:10.789Z,18.40
2022-08-22T08:22:41.815Z,20.57
2022-08-22T08:25:16.089Z,20.73
2022-08-22T08:28:17.264Z,22.63
2022-08-22T08:30:48.554Z,24.00
2022-08-22T08:33:24.166Z,22.23
2022-08-22T08:36:01.959Z,19.57
2022-08-22T08:38:34.629Z,19.57
2022-08-22T08:41:31.663Z,23.13
2022-08-22T08:44:09.361Z,21.50
2022-08-22T08:47:07.795Z,22.23
2022-08-22T08:49:47.479Z,24.23
2022-08-22T08:52:41.771Z,23.47
2022-08-22T08:55:29.783Z,25.37
2022-08-22T08:58:17.745Z,20.73
2022-08-22T09:01:04.991Z,20.67
2022-08-22T09:04:04.890Z,21.67
2022-08-22T09:06:56.739Z,26.73
2022-08-22T09:09:45.374Z,25.70
2022-08-22T09:13:00.299Z,25.70
2022-08-22T09:16:04.404Z,26.58
2022-08-22T09:19:03.257Z,28.97
2022-08-22T09:22:00.804Z,27.00
2022-08-22T09:25:06.174Z,29.07
2022-08-22T09:27:39.742Z,28.43
2022-08-22T09:30:13.294Z,32.77
2022-08-22T09:32:53.372Z,30.53
2022-08-22T09:35:29.206Z,34.40
2022-08-22T09:38:22.374Z,35.90
2022-08-22T09:41:00.404Z,33.37
2022-08-22T09:43:38.651Z,32.90
2022-08-22T09:46:19.813Z,33.37
2022-08-22T09:49:01.089Z,29.83
2022-08-22T09:51:46.099Z,29.53
2022-08-22T09:54:31.570Z,31.97
2022-08-22T09:57:22.720Z,26.43
2022-08-22T10:00:17.240Z,28.83
2022-08-22T10:03:03.581Z,28.60
2022-08-22T10:05:44.021Z,29.27
2022-08-22T10:08:19.879Z,28.63
2022-08-22T10:11:23.973Z,27.93
2022-08-22T10:14:01.479Z,25.00
2022-08-22T10:16:44.989Z,24.30
2022-08-22T10:19:19.306Z,29.77
2022-08-22T10:22:18.690Z,29.63
2022-08-22T10:24:55.644Z,25.47
2022-08-22T10:27:52.264Z,31.03
2022-08-22T10:30:26.427Z,29.17
2022-08-22T10:33:05.415Z,32.90
2022-08-22T10:35:38.908Z,30.42
2022-08-22T10:38:14.645Z,32.90
2022-08-22T10:40:52.120Z,27.60
2022-08-22T10:43:28.934Z,30.67
2022-08-22T10:46:03.761Z,29.50
2022-08-22T10:48:40.928Z,28.23
2022-08-22T10:51:20.623Z,28.70
2022-08-22T10:54:20.106Z,29.57
2022-08-22T10:56:55.655Z,27.97
2022-08-22T10:59:38.113Z,29.10
2022-08-22T11:02:38.466Z,27.23
2022-08-22T11:05:25.825Z,29.13
2022-08-22T11:08:06.400Z,29.03
2022-08-22T11:10:52.282Z,27.60
2022-08-22T11:13:29.296Z,29.17
2022-08-22T11:16:04.700Z,29.13
2022-08-22T11:19:02.959Z,29.97
2022-08-22T11:21:53.666Z,31.83
2022-08-22T11:24:55.735Z,27.23
2022-08-22T11:27:38.082Z,27.60
2022-08-22T11:30:20.532Z,28.02
2022-08-22T11:33:14.724Z,23.23
2022-08-22T11:35:51.753Z,25.37
2022-08-22T11:38:32.586Z,26.57
2022-08-22T11:41:05.856Z,24.87
2022-08-22T11:43:49.485Z,25.47
2022-08-22T11:46:31.638Z,27.90
2022-08-22T11:49:21.082Z,29.87
2022-08-22T11:52:06.736Z,26.70
2022-08-22T11:55:01.704Z,27.90
2022-08-22T11:57:36.279Z,26.87
2022-08-22T12:00:20.895Z,24.40
2022-08-22T12:03:07.216Z,30.87
2022-08-22T12:05:43.724Z,25.33
2022-08-22T12:08:21.312Z,26.93
2022-08-22T12:10:57.285Z,26.93
2022-08-22T12:13:49.703Z,29.10
2022-08-22T12:16:26.813Z,29.80
2022-08-22T12:19:02.890Z,25.33
2022-08-22T12:22:10.668Z,23.87
2022-08-22T12:25:03.194Z,24.57
2022-08-22T12:28:00.752Z,24.20
2022-08-22T12:30:36.414Z,24.97
2022-08-22T12:33:33.062Z,23.93
2022-08-22T12:36:18.766Z,25.60
2022-08-22T12:39:13.776Z,25.03
2022-08-22T12:42:19.428Z,25.03
2022-08-22T12:45:03.632Z,24.50
2022-08-22T12:47:44.091Z,23.63
2022-08-22T12:50:29.353Z,24.57
2022-08-22T12:53:20.501Z,26.43
2022-08-22T12:56:10.260Z,27.53
2022-08-22T12:59:12.007Z,26.40
2022-08-22T13:01:44.833Z,19.17
2022-08-22T13:04:19.356Z,18.20
2022-08-22T13:07:19.659Z,17.80
2022-08-22T13:09:53.181Z,17.77
2022-08-22T13:12:28.705Z,21.77
2022-08-22T13:15:01.859Z,18.67
2022-08-22T13:17:31.506Z,19.87
2022-08-22T13:20:10.335Z,17.17
2022-08-22T13:22:45.261Z,17.53
2022-08-22T13:25:25.646Z,17.33
2022-08-22T13:27:56.442Z,18.27
2022-08-22T13:30:31.845Z,18.50
2022-08-22T13:33:09.554Z,18.77
2022-08-22T13:35:45.599Z,17.80
2022-08-22T13:38:27.204Z,18.47
2022-08-22T13:40:57.404Z,17.90
2022-08-22T13:43:29.814Z,23.13
2022-08-22T13:46:03.248Z,19.67
2022-08-22T13:48:49.685Z,19.73
2022-08-22T13:51:26.099Z,20.27
2022-08-22T13:54:21.554Z,18.43
2022-08-22T13:57:00.879Z,18.60
2022-08-22T13:59:50.974Z,19.27
2022-08-22T14:02:57.844Z,19.37
2022-08-22T14:05:33.111Z,27.42
2022-08-22T14:08:14.497Z,20.83
2022-08-22T14:10:57.354Z,21.63
2022-08-22T14:13:45.911Z,21.23
2022-08-22T14:16:21.180Z,19.30
2022-08-22T14:18:53.814Z,18.40
2022-08-22T14:21:40.778Z,24.53
2022-08-22T14:24:17.049Z,20.52
2022-08-22T14:26:57.972Z,21.50
2022-08-22T14:29:31.874Z,20.20
2022-08-22T14:32:04.507Z,20.60
2022-08-22T14:34:36.976Z,21.30
2022-08-22T14:37:13.110Z,18.90
2022-08-22T14:39:46.707Z,20.57
2022-08-22T14:42:19.546Z,16.30
2022-08-22T14:45:00.747Z,17.57
2022-08-22T14:47:55.091Z,18.40
2022-08-22T14:50:53.068Z,17.03
2022-08-22T14:53:27.686Z,20.07
2022-08-22T14:55:59.692Z,19.53
2022-08-22T14:58:32.147Z,17.10
2022-08-22T15:01:10.338Z,20.17
2022-08-22T15:03:41.094Z,19.13
2022-08-22T15:06:16.995Z,22.77
2022-08-22T15:08:52.589Z,21.93
2022-08-22T15:11:25.646Z,20.90
2022-08-22T15:14:01.211Z,21.80
2022-08-22T15:16:33.929Z,21.87
2022-08-22T15:19:02.737Z,23.87
2022-08-22T15:21:34.341Z,23.03
2022-08-22T15:24:13.497Z,23.53
2022-08-22T15:26:50.354Z,22.30
2022-08-22T15:29:22.145Z,22.90
2022-08-22T15:31:52.333Z,25.40
2022-08-22T15:34:25.421Z,24.63
2022-08-22T15:37:08.496Z,28.80
2022-08-22T15:40:00.595Z,24.70
2022-08-22T15:42:34.398Z,28.00
2022-08-22T15:45:04.994Z,23.90
2022-08-22T15:47:38.200Z,24.50
2022-08-22T15:50:11.097Z,29.23
2022-08-22T15:53:09.843Z,24.57
2022-08-22T15:55:39.109Z,25.87
2022-08-22T15:58:13.286Z,28.60
2022-08-22T16:01:03.694Z,23.33
2022-08-22T16:03:35.220Z,24.30
2022-08-22T16:06:07.482Z,23.63
2022-08-22T16:08:48.318Z,25.97
2022-08-22T16:11:30.942Z,28.30
2022-08-22T16:14:21.684Z,29.20
2022-08-22T16:16:59.986Z,23.97
2022-08-22T16:19:30.176Z,26.10
2022-08-22T16:22:15.727Z,25.60
2022-08-22T16:25:06.682Z,30.35
2022-08-22T16:27:51.496Z,28.27
2022-08-22T16:30:36.056Z,29.03
2022-08-22T16:33:17.717Z,25.53
2022-08-22T16:36:25.957Z,27.13
2022-08-22T16:38:58.075Z,32.07
2022-08-22T16:41:33.489Z,28.37
2022-08-22T16:44:23.155Z,24.53
2022-08-22T16:46:53.994Z,23.33
2022-08-22T16:49:30.647Z,26.23
2022-08-22T16:52:35.987Z,25.17
2022-08-22T16:55:07.850Z,26.17
2022-08-22T16:58:04.948Z,25.63
2022-08-22T17:00:43.527Z,24.27
2022-08-22T17:03:19.830Z,24.00
2022-08-22T17:06:02.056Z,25.37
2022-08-22T17:08:44.791Z,25.70
2022-08-22T17:11:28.003Z,28.63
2022-08-22T17:14:24.378Z,25.43
2022-08-22T17:17:05.418Z,23.80
2022-08-22T17:19:45.757Z,25.73
2022-08-22T17:22:29.159Z,26.17
2022-08-22T17:25:10.929Z,22.90
2022-08-22T17:27:40.910Z,26.67
2022-08-22T17:30:14.283Z,22.83
2022-08-22T17:32:59.794Z,23.03
2022-08-22T17:35:45.459Z,24.60
2022-08-22T17:38:29.211Z,23.33
2022-08-22T17:41:06.845Z,24.23
2022-08-22T17:43:56.920Z,26.63
2022-08-22T17:46:35.399Z,26.37
2022-08-22T17:49:17.442Z,29.37
2022-08-22T17:51:54.767Z,26.00
2022-08-22T17:54:32.221Z,28.37
2022-08-22T17:57:05.787Z,24.87
2022-08-22T17:59:41.260Z,27.13
2022-08-22T18:02:16.479Z,28.93
2022-08-22T18:04:53.408Z,28.43
2022-08-22T18:07:41.242Z,31.03
2022-08-22T18:10:21.669Z,27.77
2022-08-22T18:12:57.343Z,29.10
2022-08-22T18:15:29.986Z,25.47
2022-08-22T18:18:04.051Z,28.53
2022-08-22T18:20:39.132Z,27.33
2022-08-22T18:23:35.568Z,24.93
2022-08-22T18:26:24.007Z,27.50
2022-08-22T18:28:56.949Z,29.60
2022-08-22T18:31:38.733Z,28.07
2022-08-22T18:34:16.807Z,28.00
2022-08-22T18:36:55.767Z,27.77
2022-08-22T18:39:29.365Z,31.73
2022-08-22T18:42:07.164Z,39.67
2022-08-22T18:44:37.551Z,33.83
2022-08-22T18:47:15.236Z,35.37
2022-08-22T18:49:48.360Z,34.20
2022-08-22T18:52:38.883Z,32.27
2022-08-22T18:55:46.165Z,39.80
2022-08-22T18:58:26.726Z,35.03
2022-08-22T19:01:11.656Z,39.17
2022-08-22T19:03:56.145Z,34.00
2022-08-22T19:06:44.628Z,33.40
2022-08-22T19:09:39.656Z,38.60
2022-08-22T19:12:24.775Z,35.40
2022-08-22T19:15:10.906Z,32.40
2022-08-22T19:18:03.959Z,33.33
2022-08-22T19:20:52.014Z,34.30
2022-08-22T19:23:43.734Z,34.43
2022-08-22T19:26:35.213Z,36.33
2022-08-22T19:29:10.766Z,33.57
2022-08-22T19:31:51.665Z,36.53
2022-08-22T19:34:36.162Z,37.70
2022-08-22T19:37:33.637Z,34.43
2022-08-22T19:40:05.752Z,37.27
2022-08-22T19:42:37.049Z,30.93
2022-08-22T19:45:26.412Z,34.83
2022-08-22T19:48:00.604Z,32.27
2022-08-22T19:50:34.612Z,30.67
2022-08-22T19:53:26.299Z,31.40
2022-08-22T19:56:05.962Z,34.40
2022-08-22T19:58:50.428Z,33.60
2022-08-22T20:01:41.356Z,30.43
2022-08-22T20:04:27.507Z,33.07
2022-08-22T20:07:03.358Z,31.87
2022-08-22T20:09:49.596Z,32.63
2022-08-22T20:12:27.008Z,30.70
2022-08-22T20:14:55.263Z,31.07
2022-08-22T20:17:42.143Z,32.10
2022-08-22T20:20:35.776Z,35.97
2022-08-22T20:23:10.105Z,36.27
2022-08-22T20:25:44.644Z,31.80
2022-08-22T20:28:36.596Z,33.27
2022-08-22T20:31:10.513Z,31.90
2022-08-22T20:33:40.655Z,36.03
2022-08-22T20:36:27.206Z,31.37
2022-08-22T20:39:01.548Z,32.83
2022-08-22T20:41:35.619Z,36.40
2022-08-22T20:44:12.657Z,31.90
2022-08-22T20:46:57.631Z,33.17
2022-08-22T20:49:30.090Z,35.43
2022-08-22T20:52:01.851Z,29.73
2022-08-22T20:54:31.855Z,30.50
2022-08-22T20:57:02.387Z,28.10
2022-08-22T20:59:37.012Z,27.93
2022-08-22T21:02:11.106Z,28.13
2022-08-22T21:04:45.175Z,27.87
2022-08-22T21:07:22.030Z,26.33
2022-08-22T21:10:13.382Z,28.27
2022-08-22T21:12:41.652Z,29.47
2022-08-22T21:15:10.611Z,30.03
2022-08-22T21:17:39.421Z,30.47
2022-08-22T21:20:21.483Z,30.57
2022-08-22T21:22:51.745Z,28.10
2022-08-22T21:25:19.821Z,27.63
2022-08-22T21:27:49.677Z,34.47
2022-08-22T21:30:24.574Z,30.43
2022-08-22T21:32:56.276Z,27.77
2022-08-22T21:35:30.524Z,29.23
2022-08-22T21:38:02.152Z,30.03
2022-08-22T21:40:33.409Z,30.03
2022-08-22T21:43:06.710Z,31.83
2022-08-22T21:45:41.676Z,32.47
2022-08-22T21:48:38.125Z,31.40
2022-08-22T21:51:30.781Z,30.63
2022-08-22T21:54:39.594Z,36.58
2022-08-22T21:57:20.145Z,38.17
2022-08-22T21:59:51.934Z,35.70
2022-08-22T22:02:34.270Z,39.43
2022-08-22T22:05:08.168Z,36.30
2022-08-22T22:07:37.851Z,44.17
2022-08-22T22:10:11.170Z,47.97
2022-08-22T22:12:40.646Z,43.93
2022-08-22T22:15:10.312Z,40.57
2022-08-22T22:17:38.280Z,34.63
2022-08-22T22:20:08.069Z,40.03
2022-08-22T22:22:36.983Z,38.97
2022-08-22T22:25:06.061Z,38.87
2022-08-22T22:27:55.657Z,35.27
2022-08-22T22:30:26.731Z,36.70
2022-08-22T22:32:54.661Z,40.60
2022-08-22T22:35:22.866Z,36.53
2022-08-22T22:37:50.902Z,40.30
2022-08-22T22:40:19.172Z,35.57
2022-08-22T22:42:47.191Z,37.37
2022-08-22T22:45:16.730Z,37.43
2022-08-22T22:47:44.654Z,33.43
2022-08-22T22:50:12.808Z,35.67
2022-08-22T22:52:41.146Z,48.05
2022-08-22T22:55:11.951Z,37.77
2022-08-22T22:57:59.323Z,33.07
2022-08-22T23:00:30.942Z,33.13
2022-08-22T23:03:01.102Z,32.53
2022-08-22T23:05:29.612Z,34.53
2022-08-22T23:07:58.577Z,35.07
2022-08-22T23:10:27.261Z,34.67
2022-08-22T23:12:55.301Z,36.53
2022-08-22T23:15:23.298Z,34.70
2022-08-22T23:17:52.772Z,34.33
2022-08-22T23:20:21.268Z,36.13
2022-08-22T23:22:49.710Z,43.53
2022-08-22T23:25:17.809Z,44.00
2022-08-22T23:27:48.790Z,36.07
2022-08-22T23:30:20.846Z,39.33
2022-08-22T23:32:48.985Z,40.30
2022-08-22T23:35:18.501Z,38.73
2022-08-22T23:37:46.563Z,41.33
2022-08-22T23:40:15.009Z,36.77
2022-08-22T23:42:43.664Z,39.53
2022-08-22T23:45:11.939Z,35.87
2022-08-22T23:47:39.922Z,34.00
2022-08-22T23:50:08.507Z,35.27
2022-08-22T23:52:37.842Z,34.17
2022-08-22T23:55:06.447Z,27.80
2022-08-22T23:57:34.563Z,30.17
